createdAt,value
2019-02-28T00:02:14.512Z,6.80
2019-02-28T00:04:42.781Z,6.60
2019-02-28T00:07:11.112Z,6.47
2019-02-28T00:09:39.335Z,6.60
2019-02-28T00:12:13.193Z,6.56
2019-02-28T00:14:38.271Z,6.57
2019-02-28T00:17:09.168Z,6.58
2019-02-28T00:19:36.570Z,6.69
2019-02-28T00:22:04.862Z,6.59
2019-02-28T00:24:33.138Z,6.52
2019-02-28T00:27:01.414Z,6.58
2019-02-28T00:29:33.450Z,6.52
2019-02-28T00:31:59.680Z,6.34
2019-02-28T00:34:27.969Z,6.56
2019-02-28T00:36:56.262Z,6.67
2019-02-28T00:39:24.522Z,6.67
2019-02-28T00:41:52.811Z,6.37
2019-02-28T00:44:21.070Z,6.53
2019-02-28T00:46:49.357Z,6.44
2019-02-28T00:49:17.643Z,6.41
2019-02-28T00:51:45.958Z,6.60
2019-02-28T00:54:14.210Z,6.54
2019-02-28T00:56:42.472Z,6.12
2019-02-28T00:59:10.738Z,6.35
2019-02-28T01:01:39.011Z,6.29
2019-02-28T01:04:07.294Z,5.83
2019-02-28T01:06:35.547Z,6.16
2019-02-28T01:09:04.794Z,6.37
2019-02-28T01:11:33.051Z,6.41
2019-02-28T01:14:02.346Z,6.46
2019-02-28T01:16:30.751Z,6.51
2019-02-28T01:18:59.035Z,6.36
2019-02-28T01:21:27.286Z,6.46
2019-02-28T01:23:55.568Z,6.36
2019-02-28T01:26:23.856Z,6.26
2019-02-28T01:28:52.169Z,6.39
2019-02-28T01:31:20.455Z,6.46
2019-02-28T01:33:48.721Z,6.26
2019-02-28T01:36:16.980Z,6.29
2019-02-28T01:38:45.279Z,6.26
2019-02-28T01:41:13.551Z,6.10
2019-02-28T01:43:41.825Z,5.99
2019-02-28T01:46:10.074Z,5.94
2019-02-28T01:48:38.483Z,5.60
2019-02-28T01:51:06.737Z,5.82
2019-02-28T01:53:34.991Z,5.92
2019-02-28T01:56:03.319Z,5.82
2019-02-28T01:58:31.536Z,6.06
2019-02-28T02:00:59.822Z,6.12
2019-02-28T02:03:28.073Z,6.23
2019-02-28T02:05:56.360Z,6.35
2019-02-28T02:08:24.628Z,6.12
2019-02-28T02:10:56.003Z,6.22
2019-02-28T02:13:22.897Z,6.35
2019-02-28T02:15:52.004Z,6.46
2019-02-28T02:18:20.407Z,6.35
2019-02-28T02:20:48.660Z,6.15
2019-02-28T02:23:18.105Z,5.92
2019-02-28T02:25:46.916Z,6.14
2019-02-28T02:28:15.202Z,5.96
2019-02-28T02:30:50.477Z,6.24
2019-02-28T02:33:14.425Z,6.10
2019-02-28T02:35:43.658Z,6.07
2019-02-28T02:38:11.900Z,5.96
2019-02-28T02:40:40.183Z,5.64
2019-02-28T02:43:08.488Z,5.74
2019-02-28T02:45:41.677Z,5.52
2019-02-28T02:48:06.950Z,5.68
2019-02-28T02:50:36.115Z,5.51
2019-02-28T02:53:05.549Z,5.58
2019-02-28T02:55:34.383Z,5.56
2019-02-28T02:58:02.680Z,5.65
2019-02-28T03:00:30.929Z,5.51
2019-02-28T03:02:59.216Z,5.78
2019-02-28T03:05:34.948Z,5.70
2019-02-28T03:08:00.086Z,5.60
2019-02-28T03:10:27.462Z,5.75
2019-02-28T03:12:55.718Z,5.88
2019-02-28T03:15:26.964Z,5.81
2019-02-28T03:17:53.991Z,5.62
2019-02-28T03:20:22.286Z,5.55
2019-02-28T03:22:50.543Z,5.64
2019-02-28T03:25:18.851Z,5.60
2019-02-28T03:27:47.080Z,5.65
2019-02-28T03:30:29.238Z,5.42
2019-02-28T03:32:51.346Z,5.85
2019-02-28T03:35:19.661Z,6.00
2019-02-28T03:37:47.874Z,5.97
2019-02-28T03:40:16.193Z,5.75
2019-02-28T03:42:44.453Z,5.85
2019-02-28T03:45:14.543Z,5.91
2019-02-28T03:47:42.821Z,6.07
2019-02-28T03:50:11.616Z,6.10
2019-02-28T03:52:43.759Z,5.93
2019-02-28T03:55:11.524Z,5.93
2019-02-28T03:57:39.783Z,5.69
2019-02-28T04:00:20.071Z,5.79
2019-02-28T04:02:48.324Z,5.94
2019-02-28T04:05:16.624Z,5.74
2019-02-28T04:07:52.981Z,6.10
2019-02-28T04:10:16.763Z,5.88
2019-02-28T04:12:46.859Z,5.91
2019-02-28T04:15:19.497Z,5.70
2019-02-28T04:17:47.759Z,5.09
2019-02-28T04:20:16.027Z,5.63
2019-02-28T04:22:44.287Z,5.60
2019-02-28T04:25:12.568Z,5.85
2019-02-28T04:27:41.794Z,5.53
2019-02-28T04:30:14.370Z,5.60
2019-02-28T04:32:42.627Z,5.55
2019-02-28T04:35:11.037Z,5.21
2019-02-28T04:37:44.881Z,5.63
2019-02-28T04:40:12.983Z,5.25
2019-02-28T04:42:41.252Z,5.37
2019-02-28T04:45:13.866Z,5.36
2019-02-28T04:47:42.239Z,5.08
2019-02-28T04:50:11.774Z,5.39
2019-02-28T04:52:40.015Z,5.38
2019-02-28T04:55:09.048Z,5.26
2019-02-28T04:57:37.299Z,5.44
2019-02-28T05:00:08.958Z,5.24
2019-02-28T05:02:37.222Z,5.45
2019-02-28T05:05:05.472Z,4.96
2019-02-28T05:07:34.104Z,5.23
2019-02-28T05:10:02.372Z,4.80
2019-02-28T05:12:30.661Z,4.84
2019-02-28T05:15:02.244Z,4.77
2019-02-28T05:17:28.959Z,5.16
2019-02-28T05:19:57.212Z,5.15
2019-02-28T05:22:27.565Z,4.94
2019-02-28T05:24:55.500Z,5.12
2019-02-28T05:27:24.518Z,5.13
2019-02-28T05:29:52.914Z,5.16
2019-02-28T05:32:21.167Z,4.93
2019-02-28T05:34:51.064Z,5.14
2019-02-28T05:37:19.638Z,5.17
2019-02-28T05:43:36.587Z,4.89
2019-02-28T05:46:04.839Z,4.99
2019-02-28T05:48:35.335Z,4.85
2019-02-28T05:51:03.100Z,4.88
2019-02-28T05:53:31.365Z,5.21
2019-02-28T05:55:59.990Z,4.82
2019-02-28T05:58:28.388Z,5.10
2019-02-28T06:00:56.655Z,4.83
2019-02-28T06:03:24.919Z,4.90
2019-02-28T06:05:53.187Z,4.74
2019-02-28T06:08:21.508Z,5.02
2019-02-28T06:10:49.745Z,5.05
2019-02-28T06:13:18.418Z,5.25
2019-02-28T06:15:47.172Z,5.00
2019-02-28T06:18:15.427Z,5.31
2019-02-28T06:20:43.695Z,5.53
2019-02-28T06:23:11.978Z,5.19
2019-02-28T06:25:40.242Z,5.43
2019-02-28T06:28:08.501Z,5.30
2019-02-28T06:30:36.761Z,5.15
2019-02-28T06:33:05.066Z,5.03
2019-02-28T06:35:33.406Z,5.44
2019-02-28T06:38:01.665Z,5.48
2019-02-28T06:40:32.593Z,5.82
2019-02-28T06:54:21.421Z,6.11
2019-02-28T06:56:49.675Z,6.04
2019-02-28T06:59:17.932Z,6.03
2019-02-28T07:01:46.218Z,6.22
2019-02-28T07:04:15.269Z,6.37
2019-02-28T07:06:43.575Z,6.73
2019-02-28T07:09:11.817Z,6.39
2019-02-28T07:11:40.101Z,6.52
2019-02-28T07:14:12.924Z,6.37
2019-02-28T07:16:38.396Z,6.54
2019-02-28T07:19:06.646Z,6.69
2019-02-28T07:21:34.943Z,6.60
2019-02-28T07:24:03.794Z,7.26
2019-02-28T07:26:32.131Z,7.24
2019-02-28T07:29:00.384Z,7.37
2019-02-28T07:31:28.668Z,7.52
2019-02-28T07:33:56.929Z,7.35
2019-02-28T07:36:25.203Z,7.11
2019-02-28T07:38:53.470Z,7.39
2019-02-28T07:41:26.211Z,6.97
2019-02-28T07:43:51.741Z,7.64
2019-02-28T07:46:20.006Z,7.57
2019-02-28T07:48:48.277Z,7.82
2019-02-28T07:51:18.536Z,7.59
2019-02-28T07:53:46.533Z,7.47
2019-02-28T07:56:14.799Z,7.59
2019-02-28T07:58:43.052Z,7.94
2019-02-28T08:01:11.337Z,8.26
2019-02-28T08:03:43.320Z,8.32
2019-02-28T08:06:09.579Z,8.21
2019-02-28T08:08:37.858Z,7.89
2019-02-28T08:11:06.126Z,8.20
2019-02-28T08:13:34.584Z,8.26
2019-02-28T08:16:04.404Z,8.57
2019-02-28T08:18:32.696Z,8.87
2019-02-28T08:21:00.950Z,9.11
2019-02-28T08:23:30.230Z,8.34
2019-02-28T08:25:59.218Z,9.04
2019-02-28T08:28:29.558Z,9.03
2019-02-28T08:30:57.486Z,8.80
2019-02-28T08:33:25.754Z,9.34
2019-02-28T08:35:54.041Z,9.25
2019-02-28T08:38:22.317Z,9.42
2019-02-28T08:40:51.589Z,9.71
2019-02-28T08:43:26.887Z,9.48
2019-02-28T08:45:49.931Z,9.81
2019-02-28T08:48:18.184Z,9.93
2019-02-28T08:50:46.472Z,9.78
2019-02-28T08:53:15.528Z,10.33
2019-02-28T08:55:44.656Z,10.06
2019-02-28T08:58:12.911Z,10.20
2019-02-28T09:00:41.267Z,9.95
2019-02-28T09:03:09.552Z,9.52
2019-02-28T09:05:37.821Z,9.90
2019-02-28T09:08:06.105Z,10.25
2019-02-28T09:10:34.372Z,10.77
2019-02-28T09:13:07.785Z,10.79
2019-02-28T09:15:32.646Z,10.75
2019-02-28T09:18:00.939Z,11.13
2019-02-28T09:20:29.216Z,12.26
2019-02-28T09:23:01.518Z,12.19
2019-02-28T09:25:27.487Z,12.84
2019-02-28T09:27:55.754Z,12.78
2019-02-28T09:30:39.255Z,12.69
2019-02-28T09:33:07.519Z,12.68
2019-02-28T09:35:35.782Z,12.61
2019-02-28T09:38:07.629Z,13.07
2019-02-28T09:40:34.104Z,12.69
2019-02-28T09:43:02.402Z,13.54
2019-02-28T09:45:31.705Z,13.83
2019-02-28T09:48:02.015Z,13.20
2019-02-28T09:50:29.985Z,14.29
2019-02-28T09:52:58.247Z,14.26
2019-02-28T09:55:26.544Z,14.16
2019-02-28T09:57:55.127Z,14.46
2019-02-28T10:00:24.878Z,14.23
2019-02-28T10:02:53.217Z,14.03
2019-02-28T10:05:21.500Z,14.08
2019-02-28T10:07:49.789Z,15.02
2019-02-28T10:10:32.509Z,14.67
2019-02-28T10:13:00.799Z,14.75
2019-02-28T10:15:29.055Z,14.18
2019-02-28T10:17:57.337Z,14.96
2019-02-28T10:20:28.698Z,15.89
2019-02-28T10:22:57.093Z,15.72
2019-02-28T10:25:25.450Z,15.72
2019-02-28T10:27:54.631Z,15.38
2019-02-28T10:30:31.738Z,15.94
2019-02-28T10:32:56.971Z,15.57
2019-02-28T10:35:25.266Z,14.47
2019-02-28T10:37:57.382Z,15.26
2019-02-28T10:40:31.590Z,15.05
2019-02-28T10:42:59.866Z,14.80
2019-02-28T10:45:28.200Z,15.49
2019-02-28T10:47:56.473Z,15.66
2019-02-28T10:50:32.186Z,15.41
2019-02-28T10:53:04.042Z,15.49
2019-02-28T10:55:28.220Z,15.50
2019-02-28T10:57:56.495Z,15.74
2019-02-28T11:00:32.926Z,16.01
2019-02-28T11:03:01.946Z,17.00
2019-02-28T11:05:32.730Z,17.47
2019-02-28T11:08:01.551Z,16.12
2019-02-28T11:10:34.784Z,16.59
2019-02-28T11:13:01.442Z,16.78
2019-02-28T11:15:30.381Z,16.50
2019-02-28T11:17:58.669Z,16.80
2019-02-28T11:20:27.151Z,16.88
2019-02-28T11:22:55.465Z,16.78
2019-02-28T11:25:25.458Z,16.77
2019-02-28T11:27:54.584Z,17.10
2019-02-28T11:30:25.682Z,16.96
2019-02-28T11:32:53.970Z,16.95
2019-02-28T11:35:23.232Z,16.82
2019-02-28T11:37:52.194Z,17.11
2019-02-28T11:40:22.587Z,16.40
2019-02-28T11:42:50.837Z,16.38
2019-02-28T11:45:25.537Z,16.70
2019-02-28T11:47:55.485Z,16.96
2019-02-28T11:50:23.771Z,16.37
2019-02-28T11:52:52.030Z,16.88
2019-02-28T11:55:21.288Z,16.70
2019-02-28T11:57:49.906Z,16.34
2019-02-28T12:00:27.367Z,16.12
2019-02-28T12:02:59.704Z,15.92
2019-02-28T12:05:25.861Z,15.95
2019-02-28T12:07:54.151Z,15.87
2019-02-28T12:10:22.442Z,16.05
2019-02-28T12:12:51.016Z,15.90
2019-02-28T12:15:22.695Z,15.83
2019-02-28T12:17:51.053Z,15.67
2019-02-28T12:20:19.308Z,15.66
2019-02-28T12:22:49.326Z,15.33
2019-02-28T12:25:21.394Z,15.04
2019-02-28T12:27:49.663Z,15.09
2019-02-28T12:30:25.191Z,15.22
2019-02-28T12:32:53.664Z,15.57
2019-02-28T12:35:21.927Z,15.69
2019-02-28T12:37:50.196Z,15.40
2019-02-28T12:40:24.971Z,15.16
2019-02-28T12:42:53.263Z,15.21
2019-02-28T12:45:27.478Z,15.16
2019-02-28T12:47:55.759Z,14.96
2019-02-28T12:50:24.020Z,15.34
2019-02-28T12:52:52.349Z,15.38
2019-02-28T12:55:21.650Z,15.31
2019-02-28T12:57:51.612Z,15.55
2019-02-28T13:00:31.579Z,15.67
2019-02-28T13:02:59.903Z,15.50
2019-02-28T13:05:28.176Z,15.41
2019-02-28T13:07:57.011Z,15.67
2019-02-28T13:10:28.101Z,15.72
2019-02-28T13:13:05.529Z,15.26
2019-02-28T13:15:25.572Z,15.49
2019-02-28T13:17:53.836Z,15.26
2019-02-28T13:20:32.208Z,14.99
2019-02-28T13:22:59.482Z,15.30
2019-02-28T13:25:27.604Z,15.29
2019-02-28T13:27:55.899Z,15.33
2019-02-28T13:30:26.296Z,15.59
2019-02-28T13:32:54.652Z,15.64
2019-02-28T13:35:31.629Z,15.50
2019-02-28T13:37:59.933Z,15.27
2019-02-28T13:40:28.199Z,15.25
2019-02-28T13:42:56.484Z,15.26
2019-02-28T13:45:25.513Z,15.15
2019-02-28T13:47:53.780Z,15.26
2019-02-28T13:50:32.514Z,15.09
2019-02-28T13:53:03.339Z,15.27
2019-02-28T13:55:31.150Z,15.33
2019-02-28T13:57:59.424Z,15.15
2019-02-28T14:00:29.608Z,15.76
2019-02-28T14:03:09.493Z,15.48
2019-02-28T14:05:40.997Z,15.50
2019-02-28T14:08:10.972Z,15.41
2019-02-28T14:10:38.816Z,15.51
2019-02-28T14:13:07.348Z,15.94
2019-02-28T14:15:41.642Z,15.85
2019-02-28T14:18:10.881Z,16.06
2019-02-28T14:20:39.851Z,15.66
2019-02-28T14:23:08.114Z,15.60
2019-02-28T14:25:39.721Z,15.76
2019-02-28T14:28:06.385Z,15.40
2019-02-28T14:30:34.659Z,15.73
2019-02-28T14:33:02.939Z,16.13
2019-02-28T14:35:38.317Z,15.92
2019-02-28T14:38:11.732Z,15.93
2019-02-28T14:40:42.136Z,15.87
2019-02-28T14:43:10.437Z,15.52
2019-02-28T14:45:46.504Z,15.41
2019-02-28T14:48:15.381Z,15.60
2019-02-28T14:50:44.817Z,15.54
2019-02-28T14:53:17.659Z,15.51
2019-02-28T14:55:51.140Z,15.70
2019-02-28T14:58:22.447Z,15.11
2019-02-28T15:00:51.749Z,15.01
2019-02-28T15:03:29.187Z,15.44
2019-02-28T15:05:56.458Z,15.31
2019-02-28T15:08:24.716Z,15.11
2019-02-28T15:10:53.279Z,15.06
2019-02-28T15:13:21.516Z,15.11
2019-02-28T15:15:53.237Z,15.00
2019-02-28T15:18:19.789Z,14.70
2019-02-28T15:20:48.098Z,15.07
2019-02-28T15:23:16.368Z,15.25
2019-02-28T15:25:44.628Z,15.28
2019-02-28T15:28:13.860Z,15.01
2019-02-28T15:30:42.958Z,15.21
2019-02-28T15:33:11.238Z,15.05
2019-02-28T15:35:39.501Z,15.11
2019-02-28T15:38:09.149Z,14.75
2019-02-28T15:40:43.692Z,14.37
2019-02-28T15:43:17.190Z,14.48
2019-02-28T15:45:42.028Z,14.42
2019-02-28T15:48:10.289Z,14.40
2019-02-28T15:50:38.546Z,14.59
2019-02-28T15:53:07.769Z,14.73
2019-02-28T15:55:36.580Z,14.79
2019-02-28T15:58:05.863Z,14.72
2019-02-28T16:00:36.210Z,14.75
2019-02-28T16:03:04.651Z,14.75
2019-02-28T16:05:32.938Z,14.65
2019-02-28T16:08:01.219Z,14.73
2019-02-28T16:10:31.922Z,14.73
2019-02-28T16:13:01.099Z,14.58
2019-02-28T16:15:29.404Z,14.71
2019-02-28T16:17:57.668Z,14.51
2019-02-28T16:20:28.694Z,14.47
2019-02-28T16:22:56.787Z,14.46
2019-02-28T16:25:31.034Z,14.47
2019-02-28T16:27:59.329Z,14.66
2019-02-28T16:30:28.759Z,14.42
2019-02-28T16:32:57.618Z,14.36
2019-02-28T16:35:25.982Z,14.33
2019-02-28T16:37:54.257Z,14.08
2019-02-28T16:40:27.740Z,13.91
2019-02-28T16:42:56.020Z,13.91
2019-02-28T16:45:33.406Z,13.68
2019-02-28T16:48:03.354Z,13.77
2019-02-28T16:50:31.649Z,13.39
2019-02-28T16:52:59.942Z,12.84
2019-02-28T16:55:31.026Z,12.77
2019-02-28T16:57:58.249Z,12.84
2019-02-28T17:00:26.569Z,12.82
2019-02-28T17:02:54.870Z,12.73
2019-02-28T17:05:26.615Z,12.47
2019-02-28T17:07:53.237Z,12.19
2019-02-28T17:10:23.802Z,11.94
2019-02-28T17:13:09.849Z,12.37
2019-02-28T17:15:39.788Z,11.84
2019-02-28T17:20:40.627Z,12.23
2019-02-28T17:23:07.675Z,12.20
2019-02-28T17:25:35.940Z,12.12
2019-02-28T17:28:08.811Z,12.00
2019-02-28T17:30:47.760Z,11.67
2019-02-28T17:33:16.126Z,11.81
2019-02-28T17:35:44.383Z,11.96
2019-02-28T17:38:12.671Z,11.95
2019-02-28T17:40:40.960Z,11.77
2019-02-28T17:43:09.262Z,11.60
2019-02-28T17:45:37.512Z,11.65
2019-02-28T17:48:27.190Z,11.61
2019-02-28T17:51:09.198Z,11.43
2019-02-28T17:53:59.013Z,11.59
2019-02-28T17:56:37.550Z,11.58
2019-02-28T17:59:17.264Z,11.52
2019-02-28T18:02:11.909Z,11.27
2019-02-28T18:05:13.954Z,11.36
2019-02-28T18:08:08.434Z,11.28
2019-02-28T18:11:11.871Z,11.21
2019-02-28T18:13:55.314Z,11.16
2019-02-28T18:16:47.167Z,11.31
2019-02-28T18:19:38.431Z,11.52
2019-02-28T18:22:16.034Z,11.19
2019-02-28T18:25:01.356Z,11.22
2019-02-28T18:27:43.734Z,11.38
2019-02-28T18:30:30.406Z,11.16
2019-02-28T18:32:58.692Z,11.26
2019-02-28T18:35:29.131Z,11.71
2019-02-28T18:37:57.429Z,11.59
2019-02-28T18:40:26.934Z,11.50
2019-02-28T18:42:55.235Z,11.23
2019-02-28T18:45:23.760Z,10.97
2019-02-28T18:47:52.352Z,11.02
2019-02-28T18:50:20.644Z,11.00
2019-02-28T18:52:48.900Z,10.99
2019-02-28T18:55:17.157Z,11.00
2019-02-28T18:57:45.455Z,11.26
2019-02-28T19:00:16.602Z,10.92
2019-02-28T19:02:44.920Z,11.05
2019-02-28T19:05:13.198Z,11.24
2019-02-28T19:07:41.455Z,11.38
2019-02-28T19:10:10.393Z,11.37
2019-02-28T19:12:38.670Z,11.18
2019-02-28T19:15:16.093Z,11.27
2019-02-28T19:17:44.390Z,11.36
2019-02-28T19:20:14.290Z,11.33
2019-02-28T19:22:42.575Z,11.38
2019-02-28T19:25:14.215Z,11.12
2019-02-28T19:27:42.507Z,11.30
2019-02-28T19:30:13.860Z,11.17
2019-02-28T19:32:42.174Z,11.06
2019-02-28T19:35:10.454Z,10.98
2019-02-28T19:37:38.699Z,10.82
2019-02-28T19:40:09.729Z,11.09
2019-02-28T19:42:37.993Z,11.15
2019-02-28T19:45:20.945Z,11.30
2019-02-28T19:47:49.194Z,11.21
2019-02-28T19:50:17.466Z,11.47
2019-02-28T19:52:45.744Z,11.12
2019-02-28T19:55:15.179Z,10.93
2019-02-28T19:57:43.452Z,11.22
2019-02-28T20:00:17.350Z,11.53
2019-02-28T20:02:45.694Z,11.21
2019-02-28T20:05:14.024Z,11.50
2019-02-28T20:07:42.320Z,11.36
2019-02-28T20:10:15.896Z,11.31
2019-02-28T20:12:44.187Z,11.08
2019-02-28T20:15:15.384Z,11.01
2019-02-28T20:17:43.672Z,11.07
2019-02-28T20:20:14.808Z,11.15
2019-02-28T20:22:43.106Z,11.07
2019-02-28T20:25:13.015Z,11.28
2019-02-28T20:27:41.285Z,11.67
2019-02-28T20:30:17.816Z,11.40
2019-02-28T20:32:46.076Z,11.27
2019-02-28T20:35:15.734Z,11.31
2019-02-28T20:37:43.993Z,11.56
2019-02-28T20:40:20.644Z,11.44
2019-02-28T20:42:48.908Z,11.42
2019-02-28T20:45:17.195Z,11.65
2019-02-28T20:47:45.462Z,11.45
2019-02-28T20:50:19.744Z,11.63
2019-02-28T20:52:48.008Z,11.86
2019-02-28T20:55:16.298Z,11.80
2019-02-28T20:57:44.577Z,11.45
2019-02-28T21:00:17.248Z,11.31
2019-02-28T21:02:45.542Z,11.33
2019-02-28T21:05:16.585Z,11.50
2019-02-28T21:07:44.882Z,11.17
2019-02-28T21:10:13.145Z,11.14
2019-02-28T21:12:41.437Z,11.21
2019-02-28T21:15:11.444Z,11.19
2019-02-28T21:17:47.532Z,11.16
2019-02-28T21:20:16.726Z,11.21
2019-02-28T21:22:44.994Z,11.12
2019-02-28T21:25:18.193Z,10.75
2019-02-28T21:27:46.461Z,10.70
2019-02-28T21:30:19.563Z,10.47
2019-02-28T21:32:47.833Z,10.83
2019-02-28T21:35:17.035Z,10.60
2019-02-28T21:37:46.435Z,10.67
2019-02-28T21:40:18.944Z,10.81
2019-02-28T21:42:47.210Z,10.38
2019-02-28T21:45:17.520Z,10.27
2019-02-28T21:47:45.791Z,10.53
2019-02-28T21:50:15.803Z,10.09
2019-02-28T21:52:44.061Z,10.27
2019-02-28T21:55:13.979Z,10.30
2019-02-28T21:57:42.271Z,9.95
2019-02-28T22:00:16.245Z,10.08
2019-02-28T22:02:44.523Z,10.27
2019-02-28T22:05:13.651Z,10.44
2019-02-28T22:07:42.021Z,10.05
2019-02-28T22:10:12.675Z,9.93
2019-02-28T22:12:40.927Z,9.74
2019-02-28T22:15:11.734Z,9.75
2019-02-28T22:17:40.160Z,10.17
2019-02-28T22:20:10.589Z,10.41
2019-02-28T22:22:38.845Z,10.13
2019-02-28T22:25:09.386Z,10.22
2019-02-28T22:27:37.645Z,10.14
2019-02-28T22:30:16.630Z,10.12
2019-02-28T22:32:46.689Z,10.19
2019-02-28T22:35:16.827Z,10.03
2019-02-28T22:37:45.127Z,10.08
2019-02-28T22:40:13.389Z,10.59
2019-02-28T22:42:41.509Z,10.52
2019-02-28T22:45:09.774Z,10.57
2019-02-28T22:47:38.064Z,10.69
2019-02-28T22:50:08.465Z,10.82
2019-02-28T22:52:36.759Z,10.77
2019-02-28T22:55:07.362Z,10.86
2019-02-28T22:57:35.656Z,10.93
2019-02-28T23:00:05.550Z,10.89
2019-02-28T23:02:33.878Z,11.04
2019-02-28T23:05:02.131Z,10.88
2019-02-28T23:07:30.394Z,10.68
2019-02-28T23:10:00.716Z,10.69
2019-02-28T23:12:28.981Z,10.31
2019-02-28T23:14:57.270Z,10.32
2019-02-28T23:17:25.535Z,10.19
2019-02-28T23:19:53.804Z,10.34
2019-02-28T23:22:23.198Z,10.19
2019-02-28T23:24:51.489Z,10.30
2019-02-28T23:27:19.794Z,10.32
2019-02-28T23:29:51.280Z,10.48
2019-02-28T23:32:34.903Z,10.33
2019-02-28T23:35:04.034Z,10.57
2019-02-28T23:37:32.324Z,9.81
2019-02-28T23:40:00.582Z,10.08
2019-02-28T23:42:28.875Z,10.11
2019-02-28T23:44:57.132Z,10.11
2019-02-28T23:47:25.389Z,10.18
2019-02-28T23:49:53.655Z,10.22
2019-02-28T23:52:21.917Z,10.11
2019-02-28T23:54:50.203Z,9.96
2019-02-28T23:57:18.466Z,10.31
2019-02-28T23:59:46.746Z,10.31
